sensor_id;sensor_type;location;lat;lon;timestamp;P1;durP1;ratioP1;P2;durP2;ratioP2
58768;SDS011;44536;47.474;19.056;2023-05-10T00:02:28;11.02;;;3.45;;
58768;SDS011;44536;47.474;19.056;2023-05-10T00:05:31;5.93;;;3.03;;
58768;SDS011;44536;47.474;19.056;2023-05-10T00:08:34;8.73;;;3.77;;
58768;SDS011;44536;47.474;19.056;2023-05-10T00:11:36;5.32;;;2.85;;
58768;SDS011;44536;47.474;19.056;2023-05-10T00:14:40;6.28;;;3.50;;
58768;SDS011;44536;47.474;19.056;2023-05-10T00:17:42;5.12;;;2.22;;
58768;SDS011;44536;47.474;19.056;2023-05-10T00:20:45;6.22;;;3.22;;
58768;SDS011;44536;47.474;19.056;2023-05-10T00:23:51;6.28;;;3.22;;
58768;SDS011;44536;47.474;19.056;2023-05-10T00:26:53;7.87;;;3.03;;
58768;SDS011;44536;47.474;19.056;2023-05-10T00:29:55;10.32;;;3.42;;
58768;SDS011;44536;47.474;19.056;2023-05-10T00:32:58;7.35;;;3.60;;
58768;SDS011;44536;47.474;19.056;2023-05-10T00:36:00;6.97;;;3.58;;
58768;SDS011;44536;47.474;19.056;2023-05-10T00:39:03;7.60;;;3.30;;
58768;SDS011;44536;47.474;19.056;2023-05-10T00:42:05;10.90;;;3.20;;
58768;SDS011;44536;47.474;19.056;2023-05-10T00:45:08;8.65;;;4.57;;
58768;SDS011;44536;47.474;19.056;2023-05-10T00:48:10;7.93;;;3.90;;
58768;SDS011;44536;47.474;19.056;2023-05-10T00:51:13;6.47;;;3.62;;
58768;SDS011;44536;47.474;19.056;2023-05-10T00:54:16;6.70;;;3.35;;
58768;SDS011;44536;47.474;19.056;2023-05-10T00:57:19;6.40;;;3.28;;
58768;SDS011;44536;47.474;19.056;2023-05-10T01:00:21;8.15;;;4.00;;
58768;SDS011;44536;47.474;19.056;2023-05-10T01:03:24;7.60;;;4.03;;
58768;SDS011;44536;47.474;19.056;2023-05-10T01:06:27;7.35;;;3.15;;
58768;SDS011;44536;47.474;19.056;2023-05-10T01:09:30;8.60;;;3.33;;
58768;SDS011;44536;47.474;19.056;2023-05-10T01:12:37;8.65;;;4.68;;
58768;SDS011;44536;47.474;19.056;2023-05-10T01:15:42;6.97;;;4.62;;
58768;SDS011;44536;47.474;19.056;2023-05-10T01:18:44;8.73;;;4.20;;
58768;SDS011;44536;47.474;19.056;2023-05-10T01:35:23;9.40;;;4.25;;
58768;SDS011;44536;47.474;19.056;2023-05-10T01:38:33;7.95;;;4.62;;
58768;SDS011;44536;47.474;19.056;2023-05-10T01:41:45;7.62;;;4.20;;
58768;SDS011;44536;47.474;19.056;2023-05-10T01:48:15;8.52;;;4.60;;
58768;SDS011;44536;47.474;19.056;2023-05-10T01:51:21;7.57;;;3.80;;
58768;SDS011;44536;47.474;19.056;2023-05-10T01:54:26;10.93;;;4.85;;
58768;SDS011;44536;47.474;19.056;2023-05-10T01:57:35;7.65;;;3.92;;
58768;SDS011;44536;47.474;19.056;2023-05-10T02:00:42;7.72;;;4.12;;
58768;SDS011;44536;47.474;19.056;2023-05-10T02:03:46;8.10;;;4.28;;
58768;SDS011;44536;47.474;19.056;2023-05-10T02:06:52;9.50;;;5.25;;
58768;SDS011;44536;47.474;19.056;2023-05-10T02:09:56;7.95;;;3.85;;
58768;SDS011;44536;47.474;19.056;2023-05-10T02:12:59;6.70;;;3.58;;
58768;SDS011;44536;47.474;19.056;2023-05-10T02:16:04;9.15;;;5.55;;
58768;SDS011;44536;47.474;19.056;2023-05-10T02:19:08;8.10;;;4.20;;
58768;SDS011;44536;47.474;19.056;2023-05-10T02:22:11;7.85;;;3.85;;
58768;SDS011;44536;47.474;19.056;2023-05-10T02:25:15;9.52;;;4.60;;
58768;SDS011;44536;47.474;19.056;2023-05-10T02:28:19;7.20;;;3.80;;
58768;SDS011;44536;47.474;19.056;2023-05-10T02:31:23;7.62;;;3.75;;
58768;SDS011;44536;47.474;19.056;2023-05-10T02:37:30;7.85;;;3.53;;
58768;SDS011;44536;47.474;19.056;2023-05-10T02:40:34;8.25;;;4.65;;
58768;SDS011;44536;47.474;19.056;2023-05-10T02:43:38;8.20;;;3.83;;
58768;SDS011;44536;47.474;19.056;2023-05-10T02:49:45;10.02;;;4.18;;
58768;SDS011;44536;47.474;19.056;2023-05-10T02:52:52;7.55;;;3.53;;
58768;SDS011;44536;47.474;19.056;2023-05-10T02:55:59;8.13;;;4.32;;
58768;SDS011;44536;47.474;19.056;2023-05-10T02:59:06;10.57;;;4.60;;
58768;SDS011;44536;47.474;19.056;2023-05-10T03:02:09;11.32;;;4.30;;
58768;SDS011;44536;47.474;19.056;2023-05-10T03:08:14;8.65;;;3.83;;
58768;SDS011;44536;47.474;19.056;2023-05-10T03:11:53;7.93;;;4.00;;
58768;SDS011;44536;47.474;19.056;2023-05-10T03:19:12;7.62;;;4.15;;
58768;SDS011;44536;47.474;19.056;2023-05-10T03:22:38;8.77;;;3.87;;
58768;SDS011;44536;47.474;19.056;2023-05-10T03:25:45;10.40;;;4.55;;
58768;SDS011;44536;47.474;19.056;2023-05-10T03:28:50;7.50;;;4.12;;
58768;SDS011;44536;47.474;19.056;2023-05-10T03:31:54;9.70;;;4.43;;
58768;SDS011;44536;47.474;19.056;2023-05-10T03:34:57;8.38;;;4.10;;
58768;SDS011;44536;47.474;19.056;2023-05-10T03:37:59;8.57;;;5.20;;
58768;SDS011;44536;47.474;19.056;2023-05-10T03:41:02;8.55;;;4.68;;
58768;SDS011;44536;47.474;19.056;2023-05-10T03:44:05;9.23;;;4.28;;
58768;SDS011;44536;47.474;19.056;2023-05-10T03:47:07;9.50;;;4.30;;
58768;SDS011;44536;47.474;19.056;2023-05-10T03:50:10;11.05;;;4.37;;
58768;SDS011;44536;47.474;19.056;2023-05-10T03:53:12;7.93;;;4.20;;
58768;SDS011;44536;47.474;19.056;2023-05-10T03:56:15;8.80;;;5.00;;
58768;SDS011;44536;47.474;19.056;2023-05-10T03:59:17;8.68;;;4.03;;
58768;SDS011;44536;47.474;19.056;2023-05-10T04:02:19;8.95;;;5.25;;
58768;SDS011;44536;47.474;19.056;2023-05-10T04:05:22;7.85;;;4.90;;
58768;SDS011;44536;47.474;19.056;2023-05-10T04:08:25;8.65;;;4.70;;
58768;SDS011;44536;47.474;19.056;2023-05-10T04:11:28;8.65;;;4.20;;
58768;SDS011;44536;47.474;19.056;2023-05-10T04:14:30;7.43;;;5.25;;
58768;SDS011;44536;47.474;19.056;2023-05-10T04:17:32;8.65;;;4.40;;
58768;SDS011;44536;47.474;19.056;2023-05-10T04:20:35;9.90;;;4.85;;
58768;SDS011;44536;47.474;19.056;2023-05-10T04:23:37;7.30;;;4.45;;
58768;SDS011;44536;47.474;19.056;2023-05-10T04:26:40;8.77;;;5.07;;
58768;SDS011;44536;47.474;19.056;2023-05-10T04:29:42;9.13;;;4.75;;
58768;SDS011;44536;47.474;19.056;2023-05-10T04:32:44;7.05;;;4.65;;
58768;SDS011;44536;47.474;19.056;2023-05-10T04:35:47;11.25;;;5.87;;
58768;SDS011;44536;47.474;19.056;2023-05-10T04:38:49;9.75;;;4.95;;
58768;SDS011;44536;47.474;19.056;2023-05-10T04:41:51;7.70;;;4.93;;
58768;SDS011;44536;47.474;19.056;2023-05-10T04:44:54;8.38;;;4.45;;
58768;SDS011;44536;47.474;19.056;2023-05-10T04:47:56;8.52;;;4.97;;
58768;SDS011;44536;47.474;19.056;2023-05-10T04:50:59;9.50;;;5.07;;
58768;SDS011;44536;47.474;19.056;2023-05-10T04:54:01;10.37;;;4.83;;
58768;SDS011;44536;47.474;19.056;2023-05-10T04:57:07;8.07;;;4.20;;
58768;SDS011;44536;47.474;19.056;2023-05-10T05:00:10;8.13;;;5.35;;
58768;SDS011;44536;47.474;19.056;2023-05-10T05:03:12;10.47;;;5.63;;
58768;SDS011;44536;47.474;19.056;2023-05-10T05:06:15;9.32;;;5.47;;
58768;SDS011;44536;47.474;19.056;2023-05-10T05:09:24;7.28;;;4.30;;
58768;SDS011;44536;47.474;19.056;2023-05-10T05:12:26;8.15;;;5.07;;
58768;SDS011;44536;47.474;19.056;2023-05-10T05:15:28;8.00;;;5.30;;
58768;SDS011;44536;47.474;19.056;2023-05-10T05:18:32;9.40;;;5.32;;
58768;SDS011;44536;47.474;19.056;2023-05-10T05:21:34;7.45;;;5.35;;
58768;SDS011;44536;47.474;19.056;2023-05-10T05:27:40;7.78;;;5.45;;
58768;SDS011;44536;47.474;19.056;2023-05-10T05:30:43;11.47;;;5.17;;
58768;SDS011;44536;47.474;19.056;2023-05-10T05:33:46;8.85;;;5.57;;
58768;SDS011;44536;47.474;19.056;2023-05-10T05:36:48;8.75;;;5.00;;
58768;SDS011;44536;47.474;19.056;2023-05-10T05:39:51;9.07;;;5.93;;
58768;SDS011;44536;47.474;19.056;2023-05-10T05:42:53;11.67;;;5.53;;
58768;SDS011;44536;47.474;19.056;2023-05-10T05:45:56;8.77;;;5.43;;
58768;SDS011;44536;47.474;19.056;2023-05-10T05:49:04;11.82;;;5.37;;
58768;SDS011;44536;47.474;19.056;2023-05-10T05:52:06;11.70;;;5.03;;
58768;SDS011;44536;47.474;19.056;2023-05-10T05:55:10;9.02;;;4.37;;
58768;SDS011;44536;47.474;19.056;2023-05-10T05:58:12;7.53;;;4.80;;
58768;SDS011;44536;47.474;19.056;2023-05-10T06:01:14;8.50;;;4.23;;
58768;SDS011;44536;47.474;19.056;2023-05-10T06:04:17;6.27;;;4.27;;
58768;SDS011;44536;47.474;19.056;2023-05-10T06:07:20;7.20;;;3.93;;
58768;SDS011;44536;47.474;19.056;2023-05-10T06:10:23;7.97;;;4.25;;
58768;SDS011;44536;47.474;19.056;2023-05-10T06:13:27;6.55;;;3.60;;
58768;SDS011;44536;47.474;19.056;2023-05-10T06:16:40;7.72;;;4.28;;
58768;SDS011;44536;47.474;19.056;2023-05-10T06:19:55;8.13;;;4.37;;
58768;SDS011;44536;47.474;19.056;2023-05-10T06:22:58;7.30;;;4.95;;
58768;SDS011;44536;47.474;19.056;2023-05-10T06:26:01;7.03;;;4.40;;
58768;SDS011;44536;47.474;19.056;2023-05-10T06:29:03;7.25;;;4.22;;
58768;SDS011;44536;47.474;19.056;2023-05-10T06:32:06;6.07;;;3.93;;
58768;SDS011;44536;47.474;19.056;2023-05-10T06:35:11;6.93;;;3.78;;
58768;SDS011;44536;47.474;19.056;2023-05-10T06:38:13;8.37;;;4.80;;
58768;SDS011;44536;47.474;19.056;2023-05-10T06:41:19;7.22;;;5.28;;
58768;SDS011;44536;47.474;19.056;2023-05-10T06:44:24;7.45;;;4.45;;
58768;SDS011;44536;47.474;19.056;2023-05-10T06:47:27;7.93;;;4.50;;
58768;SDS011;44536;47.474;19.056;2023-05-10T06:50:30;9.52;;;5.05;;
58768;SDS011;44536;47.474;19.056;2023-05-10T06:57:40;9.05;;;4.68;;
58768;SDS011;44536;47.474;19.056;2023-05-10T07:00:49;8.25;;;5.53;;
58768;SDS011;44536;47.474;19.056;2023-05-10T07:03:59;9.15;;;4.55;;
58768;SDS011;44536;47.474;19.056;2023-05-10T07:07:05;10.15;;;5.25;;
58768;SDS011;44536;47.474;19.056;2023-05-10T07:10:08;7.07;;;4.37;;
58768;SDS011;44536;47.474;19.056;2023-05-10T07:14:34;7.65;;;4.40;;
58768;SDS011;44536;47.474;19.056;2023-05-10T07:17:37;7.93;;;4.50;;
58768;SDS011;44536;47.474;19.056;2023-05-10T07:20:41;8.02;;;4.75;;
58768;SDS011;44536;47.474;19.056;2023-05-10T07:23:43;6.90;;;4.32;;
58768;SDS011;44536;47.474;19.056;2023-05-10T07:26:46;11.93;;;5.10;;
58768;SDS011;44536;47.474;19.056;2023-05-10T07:29:48;7.57;;;4.40;;
58768;SDS011;44536;47.474;19.056;2023-05-10T07:32:50;6.68;;;4.12;;
58768;SDS011;44536;47.474;19.056;2023-05-10T07:35:53;7.70;;;4.90;;
58768;SDS011;44536;47.474;19.056;2023-05-10T07:38:55;8.80;;;4.45;;
58768;SDS011;44536;47.474;19.056;2023-05-10T07:41:59;7.93;;;4.03;;
58768;SDS011;44536;47.474;19.056;2023-05-10T07:45:01;8.52;;;4.43;;
58768;SDS011;44536;47.474;19.056;2023-05-10T07:48:04;10.32;;;5.25;;
58768;SDS011;44536;47.474;19.056;2023-05-10T07:51:06;6.97;;;4.10;;
58768;SDS011;44536;47.474;19.056;2023-05-10T07:54:11;9.00;;;4.50;;
58768;SDS011;44536;47.474;19.056;2023-05-10T07:57:15;7.15;;;4.20;;
58768;SDS011;44536;47.474;19.056;2023-05-10T08:00:20;8.40;;;3.75;;
58768;SDS011;44536;47.474;19.056;2023-05-10T08:03:22;9.15;;;4.40;;
58768;SDS011;44536;47.474;19.056;2023-05-10T08:06:25;6.32;;;4.05;;
58768;SDS011;44536;47.474;19.056;2023-05-10T08:09:30;7.00;;;4.10;;
58768;SDS011;44536;47.474;19.056;2023-05-10T08:12:32;7.78;;;4.65;;
58768;SDS011;44536;47.474;19.056;2023-05-10T08:15:34;7.15;;;3.85;;
58768;SDS011;44536;47.474;19.056;2023-05-10T08:18:37;9.77;;;4.85;;
58768;SDS011;44536;47.474;19.056;2023-05-10T08:21:40;8.55;;;4.30;;
58768;SDS011;44536;47.474;19.056;2023-05-10T08:24:45;6.18;;;3.45;;
58768;SDS011;44536;47.474;19.056;2023-05-10T08:27:49;6.70;;;4.07;;
58768;SDS011;44536;47.474;19.056;2023-05-10T08:30:52;9.23;;;4.32;;
58768;SDS011;44536;47.474;19.056;2023-05-10T08:33:55;7.90;;;4.47;;
58768;SDS011;44536;47.474;19.056;2023-05-10T08:36:57;8.48;;;4.47;;
58768;SDS011;44536;47.474;19.056;2023-05-10T08:40:00;8.38;;;4.43;;
58768;SDS011;44536;47.474;19.056;2023-05-10T08:43:06;8.55;;;4.15;;
58768;SDS011;44536;47.474;19.056;2023-05-10T08:46:10;9.68;;;4.72;;
58768;SDS011;44536;47.474;19.056;2023-05-10T08:49:16;8.77;;;5.22;;
58768;SDS011;44536;47.474;19.056;2023-05-10T08:52:22;7.35;;;4.45;;
58768;SDS011;44536;47.474;19.056;2023-05-10T08:55:27;12.35;;;4.10;;
58768;SDS011;44536;47.474;19.056;2023-05-10T08:58:31;8.20;;;4.28;;
58768;SDS011;44536;47.474;19.056;2023-05-10T09:01:35;6.93;;;4.18;;
58768;SDS011;44536;47.474;19.056;2023-05-10T09:04:38;7.65;;;4.00;;
58768;SDS011;44536;47.474;19.056;2023-05-10T09:07:41;8.88;;;4.25;;
58768;SDS011;44536;47.474;19.056;2023-05-10T09:10:44;7.15;;;3.95;;
58768;SDS011;44536;47.474;19.056;2023-05-10T09:13:49;9.77;;;4.25;;
58768;SDS011;44536;47.474;19.056;2023-05-10T09:16:54;7.03;;;3.83;;
58768;SDS011;44536;47.474;19.056;2023-05-10T09:19:58;7.47;;;3.85;;
58768;SDS011;44536;47.474;19.056;2023-05-10T09:23:06;7.78;;;4.50;;
58768;SDS011;44536;47.474;19.056;2023-05-10T09:26:09;6.90;;;4.47;;
58768;SDS011;44536;47.474;19.056;2023-05-10T09:29:11;7.62;;;4.72;;
58768;SDS011;44536;47.474;19.056;2023-05-10T09:32:16;7.82;;;4.45;;
58768;SDS011;44536;47.474;19.056;2023-05-10T09:35:19;8.40;;;4.57;;
58768;SDS011;44536;47.474;19.056;2023-05-10T09:38:23;6.62;;;3.85;;
58768;SDS011;44536;47.474;19.056;2023-05-10T09:41:26;8.20;;;4.10;;
58768;SDS011;44536;47.474;19.056;2023-05-10T09:44:30;6.95;;;3.62;;
58768;SDS011;44536;47.474;19.056;2023-05-10T09:47:34;7.03;;;3.92;;
58768;SDS011;44536;47.474;19.056;2023-05-10T09:53:39;7.37;;;3.33;;
58768;SDS011;44536;47.474;19.056;2023-05-10T09:56:42;6.55;;;3.83;;
58768;SDS011;44536;47.474;19.056;2023-05-10T09:59:45;15.40;;;5.47;;
58768;SDS011;44536;47.474;19.056;2023-05-10T10:02:48;7.22;;;4.78;;
58768;SDS011;44536;47.474;19.056;2023-05-10T10:05:57;6.85;;;3.80;;
58768;SDS011;44536;47.474;19.056;2023-05-10T10:08:59;5.70;;;3.40;;
58768;SDS011;44536;47.474;19.056;2023-05-10T10:12:02;6.30;;;3.77;;
58768;SDS011;44536;47.474;19.056;2023-05-10T10:15:07;8.45;;;3.40;;
58768;SDS011;44536;47.474;19.056;2023-05-10T10:18:12;6.25;;;3.08;;
58768;SDS011;44536;47.474;19.056;2023-05-10T10:21:17;8.10;;;4.30;;
58768;SDS011;44536;47.474;19.056;2023-05-10T10:24:20;6.25;;;3.65;;
58768;SDS011;44536;47.474;19.056;2023-05-10T10:30:53;5.65;;;2.97;;
58768;SDS011;44536;47.474;19.056;2023-05-10T10:37:43;7.10;;;3.70;;
58768;SDS011;44536;47.474;19.056;2023-05-10T10:40:47;7.95;;;4.35;;
58768;SDS011;44536;47.474;19.056;2023-05-10T10:43:50;5.30;;;2.80;;
58768;SDS011;44536;47.474;19.056;2023-05-10T10:47:25;5.75;;;2.87;;
58768;SDS011;44536;47.474;19.056;2023-05-10T10:50:42;5.62;;;2.87;;
58768;SDS011;44536;47.474;19.056;2023-05-10T10:53:45;6.00;;;2.80;;
58768;SDS011;44536;47.474;19.056;2023-05-10T11:00:18;5.95;;;2.83;;
58768;SDS011;44536;47.474;19.056;2023-05-10T11:03:21;6.75;;;3.33;;
58768;SDS011;44536;47.474;19.056;2023-05-10T11:06:32;5.53;;;3.05;;
58768;SDS011;44536;47.474;19.056;2023-05-10T11:09:39;8.15;;;2.55;;
58768;SDS011;44536;47.474;19.056;2023-05-10T11:13:00;8.60;;;2.10;;
58768;SDS011;44536;47.474;19.056;2023-05-10T11:19:16;6.43;;;2.42;;
58768;SDS011;44536;47.474;19.056;2023-05-10T11:22:23;5.47;;;2.65;;
58768;SDS011;44536;47.474;19.056;2023-05-10T11:25:27;5.53;;;2.62;;
58768;SDS011;44536;47.474;19.056;2023-05-10T11:28:30;4.87;;;2.45;;
58768;SDS011;44536;47.474;19.056;2023-05-10T11:31:42;5.65;;;2.42;;
58768;SDS011;44536;47.474;19.056;2023-05-10T11:34:50;4.60;;;2.70;;
58768;SDS011;44536;47.474;19.056;2023-05-10T11:37:55;5.30;;;2.45;;
58768;SDS011;44536;47.474;19.056;2023-05-10T11:40:58;5.43;;;2.17;;
58768;SDS011;44536;47.474;19.056;2023-05-10T11:44:00;3.90;;;2.05;;
58768;SDS011;44536;47.474;19.056;2023-05-10T11:47:04;6.45;;;2.75;;
58768;SDS011;44536;47.474;19.056;2023-05-10T11:50:07;4.87;;;2.50;;
58768;SDS011;44536;47.474;19.056;2023-05-10T11:53:10;7.30;;;2.72;;
58768;SDS011;44536;47.474;19.056;2023-05-10T11:56:13;4.15;;;2.28;;
58768;SDS011;44536;47.474;19.056;2023-05-10T11:59:16;4.80;;;2.37;;
58768;SDS011;44536;47.474;19.056;2023-05-10T12:02:18;4.40;;;2.40;;
58768;SDS011;44536;47.474;19.056;2023-05-10T12:05:23;4.40;;;2.33;;
58768;SDS011;44536;47.474;19.056;2023-05-10T12:08:26;5.73;;;2.47;;
58768;SDS011;44536;47.474;19.056;2023-05-10T12:11:30;6.30;;;2.87;;
58768;SDS011;44536;47.474;19.056;2023-05-10T12:14:35;3.90;;;2.10;;
58768;SDS011;44536;47.474;19.056;2023-05-10T12:17:38;5.20;;;2.20;;
58768;SDS011;44536;47.474;19.056;2023-05-10T12:20:44;4.90;;;2.50;;
58768;SDS011;44536;47.474;19.056;2023-05-10T12:27:32;5.90;;;2.42;;
58768;SDS011;44536;47.474;19.056;2023-05-10T12:30:35;6.57;;;2.87;;
58768;SDS011;44536;47.474;19.056;2023-05-10T12:33:39;5.30;;;2.30;;
58768;SDS011;44536;47.474;19.056;2023-05-10T12:36:49;4.97;;;2.25;;
58768;SDS011;44536;47.474;19.056;2023-05-10T12:39:52;5.53;;;2.83;;
58768;SDS011;44536;47.474;19.056;2023-05-10T12:42:55;5.70;;;3.53;;
58768;SDS011;44536;47.474;19.056;2023-05-10T12:45:57;8.05;;;3.08;;
58768;SDS011;44536;47.474;19.056;2023-05-10T12:49:00;5.03;;;2.53;;
58768;SDS011;44536;47.474;19.056;2023-05-10T12:52:10;4.82;;;2.08;;
58768;SDS011;44536;47.474;19.056;2023-05-10T12:55:18;6.10;;;1.87;;
58768;SDS011;44536;47.474;19.056;2023-05-10T12:58:21;5.00;;;2.60;;
58768;SDS011;44536;47.474;19.056;2023-05-10T13:01:36;8.10;;;2.47;;
58768;SDS011;44536;47.474;19.056;2023-05-10T13:04:39;4.00;;;1.90;;
58768;SDS011;44536;47.474;19.056;2023-05-10T13:07:42;4.10;;;2.17;;
58768;SDS011;44536;47.474;19.056;2023-05-10T13:10:45;4.28;;;1.73;;
58768;SDS011;44536;47.474;19.056;2023-05-10T13:13:48;4.90;;;3.00;;
58768;SDS011;44536;47.474;19.056;2023-05-10T13:16:50;4.35;;;2.28;;
58768;SDS011;44536;47.474;19.056;2023-05-10T13:19:53;3.08;;;1.50;;
58768;SDS011;44536;47.474;19.056;2023-05-10T13:22:55;3.33;;;1.80;;
58768;SDS011;44536;47.474;19.056;2023-05-10T13:25:58;4.00;;;1.87;;
58768;SDS011;44536;47.474;19.056;2023-05-10T13:29:00;3.30;;;1.80;;
58768;SDS011;44536;47.474;19.056;2023-05-10T13:32:03;3.53;;;1.40;;
58768;SDS011;44536;47.474;19.056;2023-05-10T13:35:07;4.87;;;1.92;;
58768;SDS011;44536;47.474;19.056;2023-05-10T13:38:10;4.25;;;2.10;;
58768;SDS011;44536;47.474;19.056;2023-05-10T13:41:12;4.55;;;1.92;;
58768;SDS011;44536;47.474;19.056;2023-05-10T13:44:15;4.97;;;2.20;;
58768;SDS011;44536;47.474;19.056;2023-05-10T13:47:17;5.12;;;1.90;;
58768;SDS011;44536;47.474;19.056;2023-05-10T13:50:21;4.05;;;1.70;;
58768;SDS011;44536;47.474;19.056;2023-05-10T13:53:23;6.45;;;2.40;;
58768;SDS011;44536;47.474;19.056;2023-05-10T13:56:29;6.03;;;2.37;;
58768;SDS011;44536;47.474;19.056;2023-05-10T13:59:31;15.02;;;2.80;;
58768;SDS011;44536;47.474;19.056;2023-05-10T14:02:34;3.37;;;1.75;;
58768;SDS011;44536;47.474;19.056;2023-05-10T14:05:37;3.53;;;1.60;;
58768;SDS011;44536;47.474;19.056;2023-05-10T14:08:39;6.75;;;2.03;;
58768;SDS011;44536;47.474;19.056;2023-05-10T14:11:42;2.75;;;1.33;;
58768;SDS011;44536;47.474;19.056;2023-05-10T14:14:45;5.15;;;2.17;;
58768;SDS011;44536;47.474;19.056;2023-05-10T14:17:48;3.72;;;1.77;;
58768;SDS011;44536;47.474;19.056;2023-05-10T14:20:50;4.62;;;1.60;;
58768;SDS011;44536;47.474;19.056;2023-05-10T14:23:53;17.27;;;3.05;;
58768;SDS011;44536;47.474;19.056;2023-05-10T14:26:56;7.60;;;1.50;;
58768;SDS011;44536;47.474;19.056;2023-05-10T14:29:58;6.87;;;1.85;;
58768;SDS011;44536;47.474;19.056;2023-05-10T14:33:01;5.10;;;1.33;;
58768;SDS011;44536;47.474;19.056;2023-05-10T14:36:05;3.50;;;1.33;;
58768;SDS011;44536;47.474;19.056;2023-05-10T14:39:08;3.65;;;1.55;;
58768;SDS011;44536;47.474;19.056;2023-05-10T14:42:12;4.28;;;2.10;;
58768;SDS011;44536;47.474;19.056;2023-05-10T14:45:14;4.37;;;1.95;;
58768;SDS011;44536;47.474;19.056;2023-05-10T14:48:20;5.07;;;2.20;;
58768;SDS011;44536;47.474;19.056;2023-05-10T14:51:23;6.47;;;2.05;;
58768;SDS011;44536;47.474;19.056;2023-05-10T14:54:25;3.73;;;1.77;;
58768;SDS011;44536;47.474;19.056;2023-05-10T14:57:28;4.37;;;1.67;;
58768;SDS011;44536;47.474;19.056;2023-05-10T15:00:34;7.05;;;2.47;;
58768;SDS011;44536;47.474;19.056;2023-05-10T15:03:37;4.18;;;1.85;;
58768;SDS011;44536;47.474;19.056;2023-05-10T15:06:40;4.03;;;1.98;;
58768;SDS011;44536;47.474;19.056;2023-05-10T15:09:43;6.63;;;1.90;;
58768;SDS011;44536;47.474;19.056;2023-05-10T15:15:48;3.15;;;1.33;;
58768;SDS011;44536;47.474;19.056;2023-05-10T15:18:51;3.57;;;1.20;;
58768;SDS011;44536;47.474;19.056;2023-05-10T15:21:53;5.22;;;1.80;;
58768;SDS011;44536;47.474;19.056;2023-05-10T15:24:56;6.27;;;1.97;;
58768;SDS011;44536;47.474;19.056;2023-05-10T15:27:58;3.58;;;1.58;;
58768;SDS011;44536;47.474;19.056;2023-05-10T15:31:01;2.85;;;1.75;;
58768;SDS011;44536;47.474;19.056;2023-05-10T15:34:03;5.25;;;1.80;;
58768;SDS011;44536;47.474;19.056;2023-05-10T15:37:06;5.57;;;1.60;;
58768;SDS011;44536;47.474;19.056;2023-05-10T15:40:08;4.50;;;1.60;;
58768;SDS011;44536;47.474;19.056;2023-05-10T15:43:11;5.87;;;1.60;;
58768;SDS011;44536;47.474;19.056;2023-05-10T15:46:13;3.28;;;1.48;;
58768;SDS011;44536;47.474;19.056;2023-05-10T15:49:16;3.97;;;1.65;;
58768;SDS011;44536;47.474;19.056;2023-05-10T15:52:19;4.43;;;1.83;;
58768;SDS011;44536;47.474;19.056;2023-05-10T15:55:22;5.03;;;2.12;;
58768;SDS011;44536;47.474;19.056;2023-05-10T15:58:25;4.18;;;1.52;;
58768;SDS011;44536;47.474;19.056;2023-05-10T16:01:27;3.33;;;1.50;;
58768;SDS011;44536;47.474;19.056;2023-05-10T16:04:30;4.03;;;1.87;;
58768;SDS011;44536;47.474;19.056;2023-05-10T16:07:33;3.85;;;1.67;;
58768;SDS011;44536;47.474;19.056;2023-05-10T16:10:35;3.47;;;1.30;;
58768;SDS011;44536;47.474;19.056;2023-05-10T16:13:38;4.12;;;1.60;;
58768;SDS011;44536;47.474;19.056;2023-05-10T16:16:41;5.47;;;2.23;;
58768;SDS011;44536;47.474;19.056;2023-05-10T16:19:44;4.03;;;1.67;;
58768;SDS011;44536;47.474;19.056;2023-05-10T16:22:48;4.47;;;2.15;;
58768;SDS011;44536;47.474;19.056;2023-05-10T16:25:50;3.58;;;1.55;;
58768;SDS011;44536;47.474;19.056;2023-05-10T16:28:53;4.27;;;1.77;;
58768;SDS011;44536;47.474;19.056;2023-05-10T16:31:55;4.32;;;1.77;;
58768;SDS011;44536;47.474;19.056;2023-05-10T16:34:58;4.15;;;1.92;;
58768;SDS011;44536;47.474;19.056;2023-05-10T16:38:01;3.65;;;1.92;;
58768;SDS011;44536;47.474;19.056;2023-05-10T16:44:07;4.65;;;1.77;;
58768;SDS011;44536;47.474;19.056;2023-05-10T16:47:10;5.15;;;2.10;;
58768;SDS011;44536;47.474;19.056;2023-05-10T16:50:12;4.50;;;2.47;;
58768;SDS011;44536;47.474;19.056;2023-05-10T16:53:16;5.68;;;2.28;;
58768;SDS011;44536;47.474;19.056;2023-05-10T16:56:18;4.97;;;2.22;;
58768;SDS011;44536;47.474;19.056;2023-05-10T16:59:23;4.75;;;1.90;;
58768;SDS011;44536;47.474;19.056;2023-05-10T17:02:25;4.60;;;1.92;;
58768;SDS011;44536;47.474;19.056;2023-05-10T17:05:28;3.92;;;2.03;;
58768;SDS011;44536;47.474;19.056;2023-05-10T17:08:30;4.15;;;2.20;;
58768;SDS011;44536;47.474;19.056;2023-05-10T17:11:33;5.17;;;2.43;;
58768;SDS011;44536;47.474;19.056;2023-05-10T17:14:35;5.65;;;2.35;;
58768;SDS011;44536;47.474;19.056;2023-05-10T17:17:39;5.05;;;2.65;;
58768;SDS011;44536;47.474;19.056;2023-05-10T17:20:42;6.30;;;2.62;;
58768;SDS011;44536;47.474;19.056;2023-05-10T17:23:46;5.28;;;2.85;;
58768;SDS011;44536;47.474;19.056;2023-05-10T17:26:48;7.10;;;2.33;;
58768;SDS011;44536;47.474;19.056;2023-05-10T17:29:54;5.05;;;2.12;;
58768;SDS011;44536;47.474;19.056;2023-05-10T17:32:58;5.60;;;2.50;;
58768;SDS011;44536;47.474;19.056;2023-05-10T17:36:01;5.93;;;2.80;;
58768;SDS011;44536;47.474;19.056;2023-05-10T17:39:04;4.78;;;2.70;;
58768;SDS011;44536;47.474;19.056;2023-05-10T17:42:07;5.70;;;3.12;;
58768;SDS011;44536;47.474;19.056;2023-05-10T17:45:10;5.28;;;2.45;;
58768;SDS011;44536;47.474;19.056;2023-05-10T17:48:13;5.95;;;2.45;;
58768;SDS011;44536;47.474;19.056;2023-05-10T17:51:15;4.65;;;2.30;;
58768;SDS011;44536;47.474;19.056;2023-05-10T17:54:18;5.53;;;2.53;;
58768;SDS011;44536;47.474;19.056;2023-05-10T17:57:20;5.62;;;2.80;;
58768;SDS011;44536;47.474;19.056;2023-05-10T18:00:25;4.93;;;2.70;;
58768;SDS011;44536;47.474;19.056;2023-05-10T18:03:27;6.65;;;3.10;;
58768;SDS011;44536;47.474;19.056;2023-05-10T18:06:30;7.10;;;2.33;;
58768;SDS011;44536;47.474;19.056;2023-05-10T18:09:37;7.45;;;2.90;;
58768;SDS011;44536;47.474;19.056;2023-05-10T18:12:39;6.30;;;3.05;;
58768;SDS011;44536;47.474;19.056;2023-05-10T18:15:42;6.50;;;2.27;;
58768;SDS011;44536;47.474;19.056;2023-05-10T18:18:44;6.50;;;2.85;;
58768;SDS011;44536;47.474;19.056;2023-05-10T18:21:47;5.47;;;2.25;;
58768;SDS011;44536;47.474;19.056;2023-05-10T18:24:50;5.18;;;2.33;;
58768;SDS011;44536;47.474;19.056;2023-05-10T18:27:52;5.30;;;2.42;;
58768;SDS011;44536;47.474;19.056;2023-05-10T18:30:55;6.20;;;2.87;;
58768;SDS011;44536;47.474;19.056;2023-05-10T18:33:57;4.87;;;2.55;;
58768;SDS011;44536;47.474;19.056;2023-05-10T18:37:00;6.47;;;2.75;;
58768;SDS011;44536;47.474;19.056;2023-05-10T18:40:04;5.90;;;2.53;;
58768;SDS011;44536;47.474;19.056;2023-05-10T18:43:10;4.28;;;2.03;;
58768;SDS011;44536;47.474;19.056;2023-05-10T18:46:13;5.72;;;2.37;;
58768;SDS011;44536;47.474;19.056;2023-05-10T18:49:16;4.70;;;2.10;;
58768;SDS011;44536;47.474;19.056;2023-05-10T18:52:19;9.35;;;2.75;;
58768;SDS011;44536;47.474;19.056;2023-05-10T18:55:22;5.75;;;2.65;;
58768;SDS011;44536;47.474;19.056;2023-05-10T18:58:27;5.32;;;2.80;;
58768;SDS011;44536;47.474;19.056;2023-05-10T19:01:30;5.25;;;2.42;;
58768;SDS011;44536;47.474;19.056;2023-05-10T19:04:33;5.10;;;2.53;;
58768;SDS011;44536;47.474;19.056;2023-05-10T19:07:35;8.18;;;2.78;;
58768;SDS011;44536;47.474;19.056;2023-05-10T19:10:38;8.93;;;3.67;;
58768;SDS011;44536;47.474;19.056;2023-05-10T19:13:41;4.28;;;2.22;;
58768;SDS011;44536;47.474;19.056;2023-05-10T19:16:43;5.37;;;2.55;;